createdAt,value
2018-08-22T00:00:16.854Z,90.20
2018-08-22T00:02:44.487Z,90.20
2018-08-22T00:05:12.132Z,90.00
2018-08-22T00:07:39.766Z,90.10
2018-08-22T00:10:07.698Z,90.40
2018-08-22T00:12:35.331Z,90.70
2018-08-22T00:15:03.089Z,91.00
2018-08-22T00:17:30.866Z,91.20
2018-08-22T00:19:58.471Z,91.30
2018-08-22T00:22:26.158Z,91.30
2018-08-22T00:24:53.758Z,91.40
2018-08-22T00:27:21.369Z,91.50
2018-08-22T00:29:48.994Z,91.40
2018-08-22T00:32:16.607Z,91.50
2018-08-22T00:34:44.308Z,91.40
2018-08-22T00:37:11.922Z,91.70
2018-08-22T00:39:39.626Z,91.60
2018-08-22T00:42:07.277Z,91.90
2018-08-22T00:44:34.890Z,92.00
2018-08-22T00:47:02.629Z,92.20
2018-08-22T00:49:30.216Z,92.90
2018-08-22T00:51:57.866Z,92.20
2018-08-22T00:54:25.466Z,92.30
2018-08-22T00:56:53.078Z,92.10
2018-08-22T00:59:20.694Z,92.20
2018-08-22T01:01:48.304Z,92.80
2018-08-22T01:04:15.986Z,92.80
2018-08-22T01:06:43.598Z,92.70
2018-08-22T01:09:11.230Z,92.70
2018-08-22T01:11:38.842Z,92.80
2018-08-22T01:14:06.528Z,92.80
2018-08-22T01:16:40.935Z,92.70
2018-08-22T01:19:08.558Z,92.60
2018-08-22T01:21:36.187Z,92.90
2018-08-22T01:24:03.863Z,92.90
2018-08-22T01:26:31.458Z,92.90
2018-08-22T01:28:59.074Z,92.90
2018-08-22T01:31:26.705Z,93.10
2018-08-22T01:33:54.355Z,93.20
2018-08-22T01:36:21.977Z,93.40
2018-08-22T01:38:49.586Z,93.30
2018-08-22T01:41:17.206Z,93.60
2018-08-22T01:43:44.824Z,93.70
2018-08-22T01:46:12.435Z,93.60
2018-08-22T01:48:40.197Z,93.70
2018-08-22T01:51:07.847Z,93.80
2018-08-22T01:53:35.474Z,93.50
2018-08-22T01:56:03.134Z,93.50
2018-08-22T01:58:30.762Z,93.40
2018-08-22T02:00:58.357Z,93.70
2018-08-22T02:03:25.970Z,93.60
2018-08-22T02:05:53.615Z,93.50
2018-08-22T02:08:21.271Z,93.40
2018-08-22T02:10:49.067Z,93.60
2018-08-22T02:13:16.711Z,94.10
2018-08-22T02:15:44.351Z,93.70
2018-08-22T02:18:12.090Z,93.80
2018-08-22T02:20:39.686Z,94.10
2018-08-22T02:23:07.419Z,94.20
2018-08-22T02:25:35.034Z,94.40
2018-08-22T02:28:02.690Z,94.40
2018-08-22T02:30:30.300Z,94.60
2018-08-22T02:32:58.030Z,94.60
2018-08-22T02:35:25.687Z,94.60
2018-08-22T02:37:53.376Z,94.90
2018-08-22T02:40:20.979Z,95.00
2018-08-22T02:42:48.618Z,94.80
2018-08-22T02:45:16.273Z,95.10
2018-08-22T02:47:43.859Z,95.20
2018-08-22T02:50:11.464Z,95.00
2018-08-22T02:52:39.125Z,94.90
2018-08-22T02:55:06.754Z,94.90
2018-08-22T02:57:34.402Z,94.90
2018-08-22T03:00:02.035Z,95.30
2018-08-22T03:02:29.642Z,95.20
2018-08-22T03:04:57.270Z,95.50
2018-08-22T03:07:24.894Z,95.20
2018-08-22T03:09:52.515Z,95.30
2018-08-22T03:12:20.227Z,95.60
2018-08-22T03:14:48.121Z,95.50
2018-08-22T03:17:15.875Z,95.40
2018-08-22T03:19:43.500Z,95.30
2018-08-22T03:22:11.134Z,95.50
2018-08-22T03:24:38.748Z,95.60
2018-08-22T03:27:06.512Z,95.60
2018-08-22T03:29:34.146Z,95.70
2018-08-22T03:32:01.772Z,95.70
2018-08-22T03:34:29.371Z,95.70
2018-08-22T03:36:56.970Z,96.00
2018-08-22T03:39:24.601Z,96.20
2018-08-22T03:41:52.299Z,96.10
2018-08-22T03:44:19.944Z,96.20
2018-08-22T03:46:47.558Z,96.50
2018-08-22T03:49:15.218Z,96.50
2018-08-22T03:51:42.851Z,96.40
2018-08-22T03:54:10.615Z,96.70
2018-08-22T03:56:38.242Z,96.50
2018-08-22T03:59:05.876Z,96.30
2018-08-22T04:01:33.502Z,96.70
2018-08-22T04:04:01.130Z,96.70
2018-08-22T04:06:28.754Z,96.60
2018-08-22T04:08:56.419Z,96.40
2018-08-22T04:11:24.033Z,96.80
2018-08-22T04:13:51.662Z,96.90
2018-08-22T04:16:19.338Z,97.00
2018-08-22T04:18:46.963Z,97.10
2018-08-22T04:21:14.650Z,97.10
2018-08-22T04:23:42.276Z,97.10
2018-08-22T04:26:09.869Z,96.90
2018-08-22T04:28:37.576Z,97.30
2018-08-22T04:31:05.261Z,97.20
2018-08-22T04:33:32.899Z,97.30
2018-08-22T04:36:00.548Z,97.20
2018-08-22T04:38:28.161Z,97.10
2018-08-22T04:40:55.829Z,96.90
2018-08-22T04:43:23.447Z,96.50
2018-08-22T04:45:51.058Z,96.30
2018-08-22T04:48:18.724Z,95.80
2018-08-22T04:50:46.349Z,95.10
2018-08-22T04:53:13.962Z,94.30
2018-08-22T04:55:41.567Z,94.60
2018-08-22T04:58:09.170Z,94.10
2018-08-22T05:00:36.827Z,92.20
2018-08-22T05:03:04.506Z,90.80
2018-08-22T05:05:32.271Z,88.70
2018-08-22T05:07:59.919Z,88.50
2018-08-22T05:10:27.545Z,86.90
2018-08-22T05:12:55.147Z,88.90
2018-08-22T05:15:22.814Z,84.20
2018-08-22T05:17:50.439Z,75.30
2018-08-22T05:20:18.099Z,72.40
2018-08-22T05:22:45.842Z,73.00
2018-08-22T05:25:13.512Z,69.20
2018-08-22T05:27:41.193Z,63.20
2018-08-22T05:30:08.839Z,59.00
2018-08-22T05:32:36.504Z,57.00
2018-08-22T05:35:04.674Z,53.50
2018-08-22T05:37:32.293Z,51.70
2018-08-22T05:39:59.981Z,50.30
2018-08-22T05:42:27.626Z,47.20
2018-08-22T05:44:55.258Z,44.40
2018-08-22T05:47:22.937Z,43.60
2018-08-22T05:49:50.652Z,41.30
2018-08-22T05:52:18.502Z,41.40
2018-08-22T05:54:47.158Z,39.50
2018-08-22T05:57:15.650Z,39.30
2018-08-22T05:59:43.266Z,38.20
2018-08-22T06:02:10.930Z,37.70
2018-08-22T06:04:38.560Z,36.50
2018-08-22T06:07:06.182Z,36.30
2018-08-22T06:09:33.795Z,34.00
2018-08-22T06:12:01.424Z,32.80
2018-08-22T06:14:29.052Z,31.80
2018-08-22T06:16:56.674Z,30.90
2018-08-22T06:19:24.301Z,29.90
2018-08-22T06:21:51.906Z,29.50
2018-08-22T06:24:19.506Z,29.10
2018-08-22T06:26:47.123Z,28.80
2018-08-22T06:29:14.706Z,28.40
2018-08-22T06:31:42.295Z,27.60
2018-08-22T06:34:09.898Z,27.50
2018-08-22T06:36:37.500Z,27.30
2018-08-22T06:39:07.399Z,26.60
2018-08-22T06:41:35.254Z,26.60
2018-08-22T06:44:02.884Z,26.30
2018-08-22T06:46:30.494Z,26.20
2018-08-22T06:48:58.128Z,26.00
2018-08-22T06:51:25.876Z,25.60
2018-08-22T06:53:53.554Z,25.40
2018-08-22T06:56:21.205Z,25.20
2018-08-22T06:58:48.843Z,25.30
2018-08-22T07:01:16.489Z,25.30
2018-08-22T07:03:44.124Z,25.20
2018-08-22T07:06:11.751Z,24.60
2018-08-22T07:08:39.387Z,24.50
2018-08-22T07:11:07.022Z,24.40
2018-08-22T07:13:34.659Z,24.40
2018-08-22T07:16:02.290Z,24.50
2018-08-22T07:18:29.898Z,24.30
2018-08-22T07:20:57.584Z,24.00
2018-08-22T07:23:25.125Z,23.90
2018-08-22T07:25:52.763Z,23.50
2018-08-22T07:28:20.396Z,23.50
2018-08-22T07:30:47.994Z,23.50
2018-08-22T07:33:15.607Z,23.90
2018-08-22T07:35:43.256Z,23.60
2018-08-22T07:38:10.886Z,23.40
2018-08-22T07:40:38.539Z,23.20
2018-08-22T07:43:06.575Z,23.00
2018-08-22T07:45:34.246Z,22.80
2018-08-22T07:48:02.058Z,22.60
2018-08-22T07:50:29.731Z,22.90
2018-08-22T07:53:02.774Z,23.00
2018-08-22T07:55:32.494Z,22.70
2018-08-22T07:58:00.123Z,22.80
2018-08-22T08:00:27.905Z,22.60
2018-08-22T08:02:55.540Z,22.50
2018-08-22T08:05:23.243Z,22.70
2018-08-22T08:07:50.805Z,22.90
2018-08-22T08:10:24.081Z,23.00
2018-08-22T08:12:51.744Z,24.10
2018-08-22T08:15:19.391Z,26.10
2018-08-22T08:17:46.987Z,27.90
2018-08-22T08:20:14.559Z,29.70
2018-08-22T08:22:42.191Z,31.40
2018-08-22T08:25:09.790Z,32.50
2018-08-22T08:27:37.423Z,33.40
2018-08-22T08:30:05.686Z,34.80
2018-08-22T08:32:33.276Z,35.30
2018-08-22T08:35:00.910Z,35.40
2018-08-22T08:37:28.542Z,35.70
2018-08-22T08:39:56.231Z,35.80
2018-08-22T08:42:24.048Z,36.00
2018-08-22T08:44:51.685Z,35.60
2018-08-22T08:47:19.764Z,35.80
2018-08-22T08:49:47.493Z,35.90
2018-08-22T08:52:15.168Z,36.50
2018-08-22T08:54:42.795Z,35.80
2018-08-22T08:57:10.637Z,35.60
2018-08-22T08:59:38.353Z,35.40
2018-08-22T09:02:06.069Z,35.60
2018-08-22T09:04:33.723Z,35.80
2018-08-22T09:07:01.614Z,35.80
2018-08-22T09:09:29.337Z,36.50
2018-08-22T09:11:58.846Z,36.50
2018-08-22T09:14:27.004Z,37.30
2018-08-22T09:16:55.049Z,36.60
2018-08-22T09:19:22.673Z,36.80
2018-08-22T09:21:50.312Z,37.40
2018-08-22T09:24:17.958Z,37.00
2018-08-22T09:26:45.602Z,37.10
2018-08-22T09:29:13.246Z,37.00
2018-08-22T09:31:40.860Z,37.10
2018-08-22T09:34:08.482Z,37.10
2018-08-22T09:36:36.127Z,37.40
2018-08-22T09:39:09.511Z,37.50
2018-08-22T09:41:37.167Z,37.50
2018-08-22T09:44:05.111Z,37.70
2018-08-22T09:46:32.832Z,38.00
2018-08-22T09:49:00.479Z,38.20
2018-08-22T09:51:28.179Z,38.30
2018-08-22T09:53:55.802Z,38.40
2018-08-22T09:56:23.479Z,38.20
2018-08-22T09:58:51.103Z,38.20
2018-08-22T10:01:27.290Z,38.50
2018-08-22T10:03:56.290Z,38.50
2018-08-22T10:06:31.964Z,38.50
2018-08-22T10:09:01.376Z,38.60
2018-08-22T10:11:28.986Z,38.90
2018-08-22T10:13:57.427Z,38.10
2018-08-22T10:16:27.191Z,38.40
2018-08-22T10:18:55.277Z,38.50
2018-08-22T10:21:23.665Z,38.50
2018-08-22T10:23:51.325Z,38.70
2018-08-22T10:26:18.934Z,38.30
2018-08-22T10:28:46.579Z,38.50
2018-08-22T10:31:14.232Z,38.70
2018-08-22T10:33:41.862Z,38.00
2018-08-22T10:36:10.256Z,38.50
2018-08-22T10:38:37.979Z,38.40
2018-08-22T10:41:05.702Z,39.30
2018-08-22T10:43:33.322Z,39.60
2018-08-22T10:46:01.107Z,40.20
2018-08-22T10:48:29.046Z,40.30
2018-08-22T10:50:56.731Z,40.30
2018-08-22T10:53:24.386Z,39.80
2018-08-22T10:55:52.014Z,40.10
2018-08-22T10:58:19.679Z,40.20
2018-08-22T11:00:47.623Z,40.80
2018-08-22T11:03:15.281Z,40.00
2018-08-22T11:05:42.978Z,40.40
2018-08-22T11:08:10.624Z,40.80
2018-08-22T11:10:38.266Z,40.90
2018-08-22T11:13:05.889Z,40.90
2018-08-22T11:15:33.511Z,41.00
2018-08-22T11:18:01.143Z,41.30
2018-08-22T11:20:29.819Z,41.40
2018-08-22T11:23:08.704Z,41.30
2018-08-22T11:25:47.716Z,41.10
2018-08-22T11:28:26.594Z,40.80
2018-08-22T11:31:05.500Z,39.60
2018-08-22T11:33:44.311Z,39.30
2018-08-22T11:36:10.900Z,39.40
2018-08-22T11:38:39.067Z,39.30
2018-08-22T11:41:06.711Z,39.60
2018-08-22T11:43:35.026Z,39.40
2018-08-22T11:46:02.757Z,39.60
2018-08-22T11:48:30.366Z,39.30
2018-08-22T11:50:57.996Z,39.20
2018-08-22T11:53:25.613Z,38.90
2018-08-22T11:55:53.254Z,39.30
2018-08-22T11:58:20.888Z,39.30
2018-08-22T12:00:48.518Z,39.10
2018-08-22T12:03:16.175Z,38.90
2018-08-22T12:05:44.807Z,39.10
2018-08-22T12:08:12.439Z,38.70
2018-08-22T12:10:40.218Z,38.90
2018-08-22T12:13:07.830Z,39.40
2018-08-22T12:15:35.503Z,38.50
2018-08-22T12:18:03.153Z,38.40
2018-08-22T12:20:30.788Z,38.10
2018-08-22T12:22:58.462Z,38.50
2018-08-22T12:25:26.052Z,37.50
2018-08-22T12:27:53.663Z,38.10
2018-08-22T12:30:21.278Z,37.50
2018-08-22T12:32:48.935Z,36.50
2018-08-22T12:35:16.576Z,36.80
2018-08-22T12:37:44.231Z,37.80
2018-08-22T12:40:11.878Z,37.50
2018-08-22T12:42:39.505Z,36.10
2018-08-22T12:45:07.842Z,37.30
2018-08-22T12:47:35.487Z,36.50
2018-08-22T12:50:04.340Z,37.10
2018-08-22T12:52:31.970Z,36.60
2018-08-22T12:54:59.601Z,36.20
2018-08-22T12:57:27.228Z,36.20
2018-08-22T12:59:54.853Z,37.70
2018-08-22T13:02:22.483Z,37.70
2018-08-22T13:04:50.123Z,37.20
2018-08-22T13:07:17.734Z,37.40
2018-08-22T13:09:45.350Z,37.30
2018-08-22T13:12:12.990Z,37.70
2018-08-22T13:14:41.559Z,38.20
2018-08-22T13:17:09.182Z,38.40
2018-08-22T13:19:36.804Z,38.20
2018-08-22T13:22:04.442Z,38.30
2018-08-22T13:24:32.079Z,38.30
2018-08-22T13:26:59.727Z,38.00
2018-08-22T13:29:27.332Z,38.20
2018-08-22T13:31:54.951Z,38.00
2018-08-22T13:34:22.598Z,37.50
2018-08-22T13:36:50.234Z,37.30
2018-08-22T13:39:17.896Z,37.60
2018-08-22T13:41:45.519Z,37.00
2018-08-22T13:44:13.131Z,37.10
2018-08-22T13:46:41.530Z,37.40
2018-08-22T13:49:09.164Z,37.80
2018-08-22T13:51:36.788Z,37.80
2018-08-22T13:54:04.409Z,38.00
2018-08-22T13:56:32.039Z,37.60
2018-08-22T13:58:59.642Z,37.50
2018-08-22T14:01:27.320Z,37.10
2018-08-22T14:03:54.922Z,37.20
2018-08-22T14:06:22.522Z,37.50
2018-08-22T14:08:50.177Z,37.30
2018-08-22T14:11:17.817Z,37.40
2018-08-22T14:13:45.439Z,37.60
2018-08-22T14:16:13.043Z,37.40
2018-08-22T14:18:40.662Z,37.40
2018-08-22T14:21:08.283Z,37.50
2018-08-22T14:23:35.926Z,38.40
2018-08-22T14:26:03.550Z,37.10
2018-08-22T14:28:31.200Z,38.00
2018-08-22T14:30:58.819Z,38.20
2018-08-22T14:33:26.439Z,38.60
2018-08-22T14:35:54.073Z,38.70
2018-08-22T14:38:21.693Z,38.90
2018-08-22T14:40:49.351Z,39.50
2018-08-22T14:43:16.978Z,39.20
2018-08-22T14:45:44.595Z,39.40
2018-08-22T14:48:12.240Z,39.80
2018-08-22T14:50:39.864Z,39.50
2018-08-22T14:53:07.528Z,39.70
2018-08-22T14:55:35.184Z,40.10
2018-08-22T14:58:03.010Z,41.50
2018-08-22T15:00:30.607Z,40.40
2018-08-22T15:02:58.579Z,41.20
2018-08-22T15:05:25.882Z,42.10
2018-08-22T15:07:53.475Z,42.40
2018-08-22T15:10:21.126Z,42.60
2018-08-22T15:12:48.893Z,43.40
2018-08-22T15:15:16.438Z,46.30
2018-08-22T15:17:44.341Z,47.10
2018-08-22T15:20:11.984Z,48.40
2018-08-22T15:22:39.671Z,51.40
2018-08-22T15:25:08.474Z,54.30
2018-08-22T15:27:36.107Z,55.90
2018-08-22T15:30:04.024Z,58.40
2018-08-22T15:32:31.589Z,61.30
2018-08-22T15:34:59.228Z,67.30
2018-08-22T15:37:26.870Z,72.80
2018-08-22T15:39:54.523Z,78.10
2018-08-22T15:42:22.237Z,83.40
2018-08-22T15:44:49.866Z,88.00
2018-08-22T15:47:17.576Z,89.80
2018-08-22T15:49:45.878Z,91.50
2018-08-22T15:52:14.027Z,93.30
2018-08-22T15:54:41.732Z,94.30
2018-08-22T15:57:09.697Z,94.70
2018-08-22T15:59:37.371Z,95.20
2018-08-22T16:02:05.431Z,95.60
2018-08-22T16:05:04.859Z,95.40
2018-08-22T16:07:32.493Z,96.40
2018-08-22T16:10:00.315Z,96.50
2018-08-22T16:12:27.955Z,95.70
2018-08-22T16:14:55.575Z,95.40
2018-08-22T16:17:23.223Z,94.70
2018-08-22T16:19:52.204Z,95.10
2018-08-22T16:22:19.880Z,94.40
2018-08-22T16:24:47.523Z,94.40
2018-08-22T16:27:15.451Z,93.30
2018-08-22T16:29:43.097Z,92.70
2018-08-22T16:32:10.786Z,92.90
2018-08-22T16:34:38.930Z,93.10
2018-08-22T16:37:07.951Z,92.00
2018-08-22T16:39:42.377Z,92.20
2018-08-22T16:42:10.448Z,92.70
2018-08-22T16:44:38.866Z,93.40
2018-08-22T16:47:06.588Z,94.30
2018-08-22T16:49:34.170Z,96.50
2018-08-22T16:52:01.792Z,95.50
2018-08-22T16:54:29.432Z,96.60
2018-08-22T16:56:57.082Z,96.10
2018-08-22T16:59:24.742Z,96.10
2018-08-22T17:01:52.437Z,95.80
2018-08-22T17:04:19.983Z,95.50
2018-08-22T17:06:47.849Z,95.40
2018-08-22T17:09:15.499Z,94.70
2018-08-22T17:11:43.140Z,95.20
2018-08-22T17:14:10.798Z,96.10
2018-08-22T17:16:38.490Z,95.90
2018-08-22T17:19:06.134Z,95.70
2018-08-22T17:21:33.746Z,96.70
2018-08-22T17:24:01.364Z,97.30
2018-08-22T17:26:29.010Z,97.00
2018-08-22T17:28:57.858Z,96.50
2018-08-22T17:31:26.819Z,94.90
2018-08-22T17:33:55.623Z,95.30
2018-08-22T17:36:23.322Z,96.00
2018-08-22T17:38:52.162Z,97.10
2018-08-22T17:41:21.774Z,96.40
2018-08-22T17:43:59.503Z,96.50
2018-08-22T17:46:28.622Z,96.50
2018-08-22T17:48:56.507Z,97.00
2018-08-22T17:51:24.165Z,97.40
2018-08-22T17:53:51.875Z,96.80
2018-08-22T17:56:20.286Z,97.10
2018-08-22T17:58:48.339Z,97.10
2018-08-22T18:01:16.865Z,98.30
2018-08-22T18:03:44.467Z,97.80
2018-08-22T18:06:12.205Z,98.50
2018-08-22T18:08:39.833Z,99.50
2018-08-22T18:11:07.465Z,99.50
2018-08-22T18:13:35.097Z,99.40
2018-08-22T18:16:02.703Z,99.60
2018-08-22T18:18:30.314Z,99.50
2018-08-22T18:20:59.314Z,99.60
2018-08-22T18:23:27.015Z,99.40
2018-08-22T18:25:59.697Z,99.50
2018-08-22T18:28:27.528Z,99.60
2018-08-22T18:30:55.179Z,99.90
2018-08-22T18:33:22.860Z,99.90
2018-08-22T18:35:50.507Z,99.90
2018-08-22T18:38:18.114Z,99.90
2018-08-22T18:40:55.890Z,99.90
2018-08-22T18:43:23.759Z,99.90
2018-08-22T18:45:58.048Z,99.90
2018-08-22T18:48:25.699Z,99.90
2018-08-22T18:50:53.340Z,99.90
2018-08-22T18:53:20.973Z,99.90
2018-08-22T18:55:49.471Z,99.90
2018-08-22T18:58:17.102Z,99.90
2018-08-22T19:00:44.722Z,99.90
2018-08-22T19:03:12.351Z,99.90
2018-08-22T19:05:39.992Z,99.90
2018-08-22T19:08:14.574Z,99.90
2018-08-22T19:10:43.431Z,99.90
2018-08-22T19:13:16.527Z,99.90
2018-08-22T19:15:47.818Z,99.90
2018-08-22T19:18:15.417Z,99.90
2018-08-22T19:20:43.166Z,99.90
2018-08-22T19:23:10.791Z,99.90
2018-08-22T19:25:38.428Z,99.90
2018-08-22T19:28:06.142Z,99.90
2018-08-22T19:30:34.586Z,99.90
2018-08-22T19:33:02.250Z,99.90
2018-08-22T19:35:29.924Z,99.90
2018-08-22T19:38:04.808Z,99.90
2018-08-22T19:40:32.424Z,99.90
2018-08-22T19:43:00.280Z,99.90
2018-08-22T19:45:27.903Z,99.90
2018-08-22T19:47:55.572Z,99.20
2018-08-22T19:50:23.199Z,99.20
2018-08-22T19:52:50.827Z,99.40
2018-08-22T19:55:18.434Z,98.50
2018-08-22T19:57:46.063Z,98.10
2018-08-22T20:00:14.398Z,97.70
2018-08-22T20:02:42.051Z,97.50
2018-08-22T20:05:10.772Z,97.90
2018-08-22T20:07:38.753Z,97.90
2018-08-22T20:10:06.899Z,97.10
2018-08-22T20:12:41.810Z,98.30
2018-08-22T20:15:09.557Z,99.90
2018-08-22T20:17:37.191Z,99.20
2018-08-22T20:20:05.635Z,97.50
2018-08-22T20:22:37.620Z,97.80
2018-08-22T20:25:06.066Z,97.40
2018-08-22T20:27:33.669Z,96.00
2018-08-22T20:30:11.581Z,97.40
2018-08-22T20:32:54.901Z,96.90
2018-08-22T20:35:27.981Z,97.60
2018-08-22T20:37:56.479Z,97.00
2018-08-22T20:40:24.093Z,96.90
2018-08-22T20:42:51.862Z,96.70
2018-08-22T20:45:25.111Z,96.80
2018-08-22T20:47:58.067Z,95.90
2018-08-22T20:50:25.701Z,95.40
2018-08-22T20:52:57.833Z,96.40
2018-08-22T20:55:25.432Z,96.50
2018-08-22T20:57:53.058Z,96.40
2018-08-22T21:00:22.928Z,95.40
2018-08-22T21:02:50.701Z,96.70
2018-08-22T21:05:18.451Z,96.80
2018-08-22T21:07:46.042Z,96.90
2018-08-22T21:10:13.749Z,97.30
2018-08-22T21:12:41.363Z,97.30
2018-08-22T21:15:09.023Z,97.60
2018-08-22T21:17:36.632Z,97.80
2018-08-22T21:20:10.344Z,97.80
2018-08-22T21:22:37.964Z,97.90
2018-08-22T21:25:05.708Z,98.40
2018-08-22T21:27:33.367Z,98.10
2018-08-22T21:30:01.106Z,98.10
2018-08-22T21:32:28.800Z,98.10
2018-08-22T21:34:56.438Z,98.50
2018-08-22T21:37:25.719Z,98.80
2018-08-22T21:39:53.346Z,99.00
2018-08-22T21:42:26.612Z,99.30
2018-08-22T21:44:54.278Z,99.30
2018-08-22T21:47:21.947Z,99.40
2018-08-22T21:49:49.626Z,99.60
2018-08-22T21:52:17.439Z,99.90
2018-08-22T21:54:45.563Z,99.90
2018-08-22T21:57:13.479Z,99.90
2018-08-22T21:59:41.094Z,99.90
2018-08-22T22:02:09.972Z,99.90
2018-08-22T22:04:38.791Z,99.90
2018-08-22T22:07:07.543Z,99.90
2018-08-22T22:09:36.243Z,99.90
2018-08-22T22:12:08.434Z,99.90
2018-08-22T22:14:36.106Z,99.90
2018-08-22T22:17:04.803Z,99.90
2018-08-22T22:19:33.615Z,99.90
2018-08-22T22:22:01.970Z,99.90
2018-08-22T22:24:29.851Z,99.90
2018-08-22T22:26:57.671Z,99.90
2018-08-22T22:29:27.472Z,99.90
2018-08-22T22:31:55.143Z,99.90
2018-08-22T22:34:25.628Z,99.90
2018-08-22T22:36:53.431Z,99.90
2018-08-22T22:39:33.927Z,99.90
2018-08-22T22:42:11.177Z,99.90
2018-08-22T22:44:38.994Z,99.90
2018-08-22T22:47:11.525Z,99.90
2018-08-22T22:49:39.165Z,99.90
2018-08-22T22:52:21.451Z,99.90
2018-08-22T22:54:49.854Z,99.90
2018-08-22T22:57:17.756Z,99.90
2018-08-22T22:59:45.418Z,99.90
2018-08-22T23:02:13.158Z,99.90
2018-08-22T23:04:46.519Z,99.90
2018-08-22T23:07:35.036Z,99.90
2018-08-22T23:10:04.804Z,99.90
2018-08-22T23:12:46.904Z,99.90
2018-08-22T23:15:22.906Z,99.50
2018-08-22T23:17:52.137Z,99.40
2018-08-22T23:20:55.867Z,99.60
2018-08-22T23:23:31.406Z,99.90
2018-08-22T23:26:06.051Z,99.90
2018-08-22T23:28:33.942Z,99.90
2018-08-22T23:31:01.648Z,99.90
2018-08-22T23:33:29.269Z,99.90
2018-08-22T23:35:56.888Z,99.90
2018-08-22T23:38:30.599Z,99.90
2018-08-22T23:40:58.638Z,99.90
2018-08-22T23:43:29.623Z,99.90
2018-08-22T23:45:57.791Z,99.90
2018-08-22T23:48:30.906Z,99.90
2018-08-22T23:51:03.071Z,99.90
2018-08-22T23:53:37.227Z,99.90
2018-08-22T23:56:15.475Z,99.90
2018-08-22T23:58:44.555Z,99.90
